CYMA

Mayo Airport

Mayo, , Canada
TAF CYMA 212338Z 2200/2212 VRB03KT P6SM SCT030 OVC100 TEMPO 2206/2212 P6SM -SN RMK NXT FCST BY 220600Z
Issued Valid From Valid To
Jan-21 @ 23:38 UTC
(58 minutes ago)
Jan-22 @ 00:00 UTC
(36 minutes ago)
Jan-22 @ 12:00 UTC
(in 11 hours)
Jan-22 @ 00:00 to Jan-22 @ 12:00
TAF CYMA 212338Z 2200/2212 VRB03KT P6SM SCT030 OVC100
Wind Visibility Clouds
Variable at 3 knots Greater than 6 miles
  • Scattered at 3,000' AGL
  • Overcast at 10,000' AGL
Temporary Jan-22 @ 06:00 to Jan-22 @ 12:00
TEMPO 2206/2212 P6SM -SN RMK NXT FCST BY 220600Z
Visibility Conditions
Greater than 6 miles
  • Light Snow
TAF CYMA 212338Z 2200/2212 VRB03KT P6SM SCT030 OVC100 TEMPO 2206/2212 P6SM -SN RMK NXT FCST BY 220600Z
Issued Jan-21 @ 23:38 UTC
(58 minutes ago)
Valid From Jan-22 @ 00:00 UTC
(36 minutes ago)
Valid To Jan-22 @ 12:00 UTC
(in 11 hours)
Jan-22 @ 00:00 - Jan-22 @ 12:00
Wind Visibility
Variable at 3 knots Greater than 6 miles
Clouds
  • Scattered at 3,000' AGL
  • Overcast at 10,000' AGL
Temporary Jan-22 @ 06:00 - Jan-22 @ 12:00
Conditions
  • Light Snow